createdAt,value
2023-03-17T00:00:14.487Z,0.00
2023-03-17T00:01:14.465Z,0.00
2023-03-17T00:02:14.480Z,0.00
2023-03-17T00:03:14.444Z,0.00
2023-03-17T00:04:14.605Z,0.00
2023-03-17T00:05:14.412Z,0.00
2023-03-17T00:06:14.390Z,0.00
2023-03-17T00:07:14.382Z,0.00
2023-03-17T00:08:14.372Z,0.00
2023-03-17T00:09:14.531Z,0.00
2023-03-17T00:10:14.358Z,0.00
2023-03-17T00:11:14.331Z,0.00
2023-03-17T00:12:14.322Z,0.00
2023-03-17T00:13:14.314Z,0.00
2023-03-17T00:14:14.320Z,0.00
2023-03-17T00:15:14.282Z,0.00
2023-03-17T00:16:14.287Z,0.00
2023-03-17T00:17:14.450Z,0.00
2023-03-17T00:18:14.240Z,0.00
2023-03-17T00:19:14.410Z,0.00
2023-03-17T00:20:14.226Z,0.00
2023-03-17T00:21:14.208Z,0.00
2023-03-17T00:22:14.189Z,0.00
2023-03-17T00:23:14.179Z,0.00
2023-03-17T00:24:15.154Z,0.00
2023-03-17T00:25:14.149Z,0.00
2023-03-17T00:26:14.160Z,0.00
2023-03-17T00:27:14.138Z,0.00
2023-03-17T00:28:14.116Z,0.00
2023-03-17T00:29:14.275Z,0.00
2023-03-17T00:30:14.097Z,0.00
2023-03-17T00:31:14.139Z,0.00
2023-03-17T00:32:14.067Z,0.00
2023-03-17T00:33:14.058Z,0.00
2023-03-17T00:34:14.036Z,0.00
2023-03-17T00:35:14.016Z,0.00
2023-03-17T00:36:14.025Z,0.00
2023-03-17T00:37:13.989Z,0.00
2023-03-17T00:38:13.986Z,0.00
2023-03-17T00:39:47.212Z,0.00
2023-03-17T00:40:52.420Z,0.00
2023-03-17T00:41:52.432Z,0.00
2023-03-17T00:42:47.173Z,0.00
2023-03-17T00:43:47.161Z,0.00
2023-03-17T00:44:47.160Z,0.00
2023-03-17T00:45:47.122Z,0.00
2023-03-17T00:46:47.155Z,0.00
2023-03-17T00:47:47.102Z,0.00
2023-03-17T00:48:47.098Z,0.00
2023-03-17T00:49:47.069Z,0.00
2023-03-17T00:50:47.170Z,0.00
2023-03-17T00:51:47.041Z,0.00
2023-03-17T00:52:47.038Z,0.00
2023-03-17T00:53:47.045Z,0.00
2023-03-17T00:54:47.020Z,0.00
2023-03-17T00:55:47.004Z,0.00
2023-03-17T00:56:47.007Z,0.00
2023-03-17T00:57:46.979Z,0.00
2023-03-17T00:58:46.974Z,0.00
2023-03-17T00:59:47.128Z,0.00
2023-03-17T01:00:47.012Z,0.00
2023-03-17T01:01:46.964Z,0.00
2023-03-17T01:02:46.906Z,0.00
2023-03-17T01:03:46.905Z,0.00
2023-03-17T01:04:52.876Z,0.00
2023-03-17T01:05:47.869Z,0.00
2023-03-17T01:06:46.869Z,0.00
2023-03-17T01:07:46.836Z,0.00
2023-03-17T01:08:46.833Z,0.00
2023-03-17T01:09:47.020Z,0.00
2023-03-17T01:10:46.811Z,0.00
2023-03-17T01:11:46.793Z,0.00
2023-03-17T01:12:46.810Z,0.00
2023-03-17T01:13:46.796Z,0.00
2023-03-17T01:14:46.945Z,0.00
2023-03-17T01:15:46.915Z,0.00
2023-03-17T01:16:46.763Z,0.00
2023-03-17T01:17:46.713Z,0.00
2023-03-17T01:18:46.790Z,0.00
2023-03-17T01:19:46.681Z,0.00
2023-03-17T01:20:46.862Z,0.00
2023-03-17T01:21:46.677Z,0.00
2023-03-17T01:22:46.650Z,0.00
2023-03-17T01:23:46.630Z,0.00
2023-03-17T01:24:46.810Z,0.00
2023-03-17T01:25:46.611Z,0.00
2023-03-17T01:26:46.592Z,0.00
2023-03-17T01:27:46.590Z,0.00
2023-03-17T01:28:46.592Z,0.00
2023-03-17T01:29:46.741Z,0.00
2023-03-17T01:30:46.555Z,0.00
2023-03-17T01:31:46.583Z,0.00
2023-03-17T01:32:46.642Z,0.00
2023-03-17T01:33:46.691Z,0.00
2023-03-17T01:34:46.682Z,0.00
2023-03-17T01:35:46.577Z,0.00
2023-03-17T01:36:46.476Z,0.00
2023-03-17T01:37:46.461Z,0.00
2023-03-17T01:38:46.443Z,0.00
2023-03-17T01:39:46.630Z,0.00
2023-03-17T01:40:46.419Z,0.00
2023-03-17T01:41:46.410Z,0.00
2023-03-17T01:42:46.399Z,0.00
2023-03-17T01:43:46.388Z,0.00
2023-03-17T01:44:46.540Z,0.00
2023-03-17T01:45:46.391Z,0.00
2023-03-17T01:46:46.347Z,0.00
2023-03-17T01:47:46.327Z,0.00
2023-03-17T01:48:46.333Z,0.00
2023-03-17T01:49:46.310Z,0.00
2023-03-17T01:50:46.287Z,0.00
2023-03-17T01:51:46.302Z,0.00
2023-03-17T01:52:46.269Z,0.00
2023-03-17T01:53:46.446Z,0.00
2023-03-17T01:54:46.241Z,0.00
2023-03-17T01:55:46.228Z,0.00
2023-03-17T01:56:46.209Z,0.00
2023-03-17T01:57:46.206Z,0.00
2023-03-17T01:58:46.212Z,0.00
2023-03-17T01:59:46.359Z,0.00
2023-03-17T02:00:46.220Z,0.00
2023-03-17T02:01:46.188Z,0.00
2023-03-17T02:02:46.149Z,0.00
2023-03-17T02:03:46.179Z,0.00
2023-03-17T02:04:46.120Z,0.00
2023-03-17T02:05:46.107Z,0.00
2023-03-17T02:06:57.356Z,0.00
2023-03-17T02:07:47.072Z,0.00
2023-03-17T02:08:46.057Z,0.00
2023-03-17T02:09:46.045Z,0.00
2023-03-17T02:10:46.059Z,0.00
2023-03-17T02:11:46.201Z,0.00
2023-03-17T02:12:46.022Z,0.00
2023-03-17T02:13:46.000Z,0.00
2023-03-17T02:14:45.987Z,0.00
2023-03-17T02:15:45.976Z,0.00
2023-03-17T02:16:45.963Z,0.00
2023-03-17T02:17:46.122Z,0.00
2023-03-17T02:18:45.931Z,0.00
2023-03-17T02:19:45.924Z,0.00
2023-03-17T02:20:46.091Z,0.00
2023-03-17T02:21:45.889Z,0.00
2023-03-17T02:22:45.884Z,0.00
2023-03-17T02:23:45.888Z,0.00
2023-03-17T02:24:45.853Z,0.00
2023-03-17T02:25:46.025Z,0.00
2023-03-17T02:26:45.831Z,0.00
2023-03-17T02:27:45.812Z,0.00
2023-03-17T02:28:45.812Z,0.00
2023-03-17T02:29:45.969Z,0.00
2023-03-17T02:30:45.808Z,0.00
2023-03-17T02:31:45.767Z,0.00
2023-03-17T02:32:45.826Z,0.00
2023-03-17T02:33:45.740Z,0.00
2023-03-17T02:34:46.086Z,0.00
2023-03-17T02:35:45.730Z,0.00
2023-03-17T02:36:45.724Z,0.00
2023-03-17T02:37:45.690Z,0.00
2023-03-17T02:38:45.671Z,0.00
2023-03-17T02:39:45.857Z,0.00
2023-03-17T02:40:45.650Z,0.00
2023-03-17T02:41:45.640Z,0.00
2023-03-17T02:42:45.624Z,0.00
2023-03-17T02:43:45.610Z,0.00
2023-03-17T02:44:45.771Z,0.00
2023-03-17T02:45:45.655Z,0.00
2023-03-17T02:46:45.561Z,0.00
2023-03-17T02:47:45.569Z,0.00
2023-03-17T02:48:45.551Z,0.00
2023-03-17T02:49:45.541Z,0.00
2023-03-17T02:50:45.691Z,0.00
2023-03-17T02:51:45.522Z,0.00
2023-03-17T02:52:45.493Z,0.00
2023-03-17T02:53:45.490Z,0.00
2023-03-17T02:54:45.510Z,0.00
2023-03-17T02:55:45.471Z,0.00
2023-03-17T02:56:45.450Z,0.00
2023-03-17T02:57:45.429Z,0.00
2023-03-17T02:58:45.426Z,0.00
2023-03-17T02:59:45.408Z,0.00
2023-03-17T03:00:45.393Z,0.00
2023-03-17T03:01:45.411Z,0.00
2023-03-17T03:02:45.613Z,0.00
2023-03-17T03:03:45.539Z,0.00
2023-03-17T03:04:45.338Z,0.00
2023-03-17T03:05:45.339Z,0.00
2023-03-17T03:06:45.315Z,0.00
2023-03-17T03:07:45.322Z,0.00
2023-03-17T03:08:45.647Z,0.00
2023-03-17T03:09:45.278Z,0.00
2023-03-17T03:10:45.258Z,0.00
2023-03-17T03:11:45.247Z,0.00
2023-03-17T03:12:45.539Z,0.00
2023-03-17T03:13:45.229Z,0.00
2023-03-17T03:14:45.228Z,0.00
2023-03-17T03:15:45.249Z,0.00
2023-03-17T03:16:45.194Z,0.00
2023-03-17T03:17:45.176Z,0.00
2023-03-17T03:18:45.169Z,0.00
2023-03-17T03:19:45.176Z,0.00
2023-03-17T03:20:45.150Z,0.00
2023-03-17T03:21:45.156Z,0.00
2023-03-17T03:22:45.118Z,0.00
2023-03-17T03:23:45.099Z,0.00
2023-03-17T03:24:45.095Z,0.00
2023-03-17T03:25:45.075Z,0.00
2023-03-17T03:26:45.073Z,0.00
2023-03-17T03:27:45.055Z,0.00
2023-03-17T03:28:45.034Z,0.00
2023-03-17T03:29:45.202Z,0.00
2023-03-17T03:30:45.041Z,0.00
2023-03-17T03:31:45.014Z,0.00
2023-03-17T03:32:45.035Z,0.00
2023-03-17T03:33:44.975Z,0.00
2023-03-17T03:34:44.979Z,0.00
2023-03-17T03:35:45.007Z,0.00
2023-03-17T03:36:45.115Z,0.00
2023-03-17T03:37:44.925Z,0.00
2023-03-17T03:38:44.903Z,0.00
2023-03-17T03:39:44.898Z,0.00
2023-03-17T03:40:44.911Z,0.00
2023-03-17T03:41:44.912Z,0.00
2023-03-17T03:42:44.864Z,0.00
2023-03-17T03:43:44.840Z,0.00
2023-03-17T03:44:44.847Z,0.00
2023-03-17T03:45:44.822Z,0.00
2023-03-17T03:46:44.862Z,0.00
2023-03-17T03:47:44.961Z,0.00
2023-03-17T03:48:44.802Z,0.00
2023-03-17T03:49:44.763Z,0.00
2023-03-17T03:50:44.760Z,0.00
2023-03-17T03:51:44.737Z,0.00
2023-03-17T03:52:44.895Z,0.00
2023-03-17T03:53:44.707Z,0.00
2023-03-17T03:54:44.707Z,0.00
2023-03-17T03:55:44.692Z,0.00
2023-03-17T03:56:44.677Z,0.00
2023-03-17T03:57:44.829Z,0.00
2023-03-17T03:58:44.832Z,0.00
2023-03-17T03:59:44.624Z,0.00
2023-03-17T04:00:44.614Z,0.00
2023-03-17T04:01:44.613Z,0.00
2023-03-17T04:02:44.654Z,0.00
2023-03-17T04:03:44.762Z,0.00
2023-03-17T04:04:44.821Z,0.00
2023-03-17T04:05:44.558Z,0.00
2023-03-17T04:06:44.559Z,0.00
2023-03-17T04:07:44.530Z,0.00
2023-03-17T04:08:44.696Z,0.00
2023-03-17T04:09:44.679Z,0.00
2023-03-17T04:10:44.511Z,0.00
2023-03-17T04:11:44.484Z,0.00
2023-03-17T04:12:44.476Z,0.00
2023-03-17T04:13:44.452Z,0.00
2023-03-17T04:14:44.618Z,0.00
2023-03-17T04:15:44.420Z,0.00
2023-03-17T04:16:44.413Z,0.00
2023-03-17T04:17:44.423Z,0.00
2023-03-17T04:18:44.420Z,0.00
2023-03-17T04:19:44.395Z,0.00
2023-03-17T04:20:44.369Z,0.00
2023-03-17T04:21:44.350Z,0.00
2023-03-17T04:22:44.339Z,0.00
2023-03-17T04:23:44.329Z,0.00
2023-03-17T04:24:44.333Z,0.00
2023-03-17T04:25:44.469Z,0.00
2023-03-17T04:26:44.279Z,0.00
2023-03-17T04:27:44.278Z,0.00
2023-03-17T04:28:44.266Z,0.00
2023-03-17T04:29:44.240Z,0.00
2023-03-17T04:30:44.412Z,0.00
2023-03-17T04:31:44.256Z,0.00
2023-03-17T04:32:44.265Z,0.00
2023-03-17T04:33:44.196Z,0.00
2023-03-17T04:34:44.195Z,0.00
2023-03-17T04:35:44.413Z,0.00
2023-03-17T04:36:44.159Z,0.00
2023-03-17T04:37:44.147Z,0.00
2023-03-17T04:38:44.140Z,0.00
2023-03-17T04:39:44.299Z,0.00
2023-03-17T04:40:44.288Z,0.00
2023-03-17T04:41:44.089Z,0.00
2023-03-17T04:42:44.073Z,0.00
2023-03-17T04:43:44.062Z,0.00
2023-03-17T04:44:44.054Z,0.00
2023-03-17T04:45:44.072Z,0.00
2023-03-17T04:46:44.214Z,0.00
2023-03-17T04:47:44.006Z,0.00
2023-03-17T04:48:44.006Z,0.00
2023-03-17T04:49:43.980Z,0.00
2023-03-17T04:50:43.985Z,0.00
2023-03-17T04:51:43.979Z,0.00
2023-03-17T04:52:43.956Z,0.00
2023-03-17T04:53:43.936Z,0.00
2023-03-17T04:54:43.931Z,0.00
2023-03-17T04:55:44.084Z,0.00
2023-03-17T04:56:43.912Z,0.00
2023-03-17T04:57:43.883Z,0.00
2023-03-17T04:58:43.896Z,0.00
2023-03-17T04:59:43.852Z,0.00
2023-03-17T05:00:44.081Z,0.00
2023-03-17T05:01:43.853Z,0.00
2023-03-17T05:02:43.824Z,0.00
2023-03-17T05:03:43.814Z,0.00
2023-03-17T05:04:43.819Z,0.00
2023-03-17T05:05:43.773Z,0.00
2023-03-17T05:06:44.093Z,0.00
2023-03-17T05:07:43.773Z,0.00
2023-03-17T05:08:43.775Z,0.00
2023-03-17T05:09:43.751Z,0.00
2023-03-17T05:10:43.724Z,0.00
2023-03-17T05:11:43.882Z,0.00
2023-03-17T05:12:43.697Z,0.00
2023-03-17T05:13:43.680Z,0.00
2023-03-17T05:14:43.668Z,0.00
2023-03-17T05:15:43.650Z,0.00
2023-03-17T05:16:43.855Z,0.00
2023-03-17T05:17:43.619Z,0.00
2023-03-17T05:18:43.807Z,0.00
2023-03-17T05:19:43.595Z,0.00
2023-03-17T05:20:43.604Z,0.00
2023-03-17T05:21:43.782Z,0.00
2023-03-17T05:22:43.570Z,0.00
2023-03-17T05:23:43.542Z,0.00
2023-03-17T05:24:43.870Z,0.00
2023-03-17T05:25:43.528Z,0.00
2023-03-17T05:26:43.513Z,0.00
2023-03-17T05:27:43.509Z,0.00
2023-03-17T05:28:43.496Z,0.00
2023-03-17T05:29:43.476Z,0.00
2023-03-17T05:30:43.503Z,0.00
2023-03-17T05:31:43.464Z,0.00
2023-03-17T05:32:43.473Z,0.00
2023-03-17T05:33:43.422Z,0.00
2023-03-17T05:34:43.587Z,0.00
2023-03-17T05:35:43.397Z,0.00
2023-03-17T05:36:43.380Z,0.00
2023-03-17T05:37:43.366Z,0.00
2023-03-17T05:38:43.354Z,0.00
2023-03-17T05:39:43.529Z,0.00
2023-03-17T05:40:43.364Z,0.00
2023-03-17T05:41:43.327Z,0.00
2023-03-17T05:42:43.294Z,0.00
2023-03-17T05:43:43.302Z,0.00
2023-03-17T05:44:43.456Z,0.00
2023-03-17T05:45:43.335Z,0.00
2023-03-17T05:46:43.993Z,0.00
2023-03-17T05:47:43.241Z,0.00
2023-03-17T05:48:43.221Z,0.00
2023-03-17T05:49:43.213Z,0.00
2023-03-17T05:50:43.378Z,0.00
2023-03-17T05:51:43.195Z,0.00
2023-03-17T05:52:43.181Z,0.00
2023-03-17T05:53:43.174Z,0.00
2023-03-17T05:54:43.153Z,0.00
2023-03-17T05:55:43.193Z,0.00
2023-03-17T05:56:43.131Z,0.00
2023-03-17T05:57:43.193Z,0.00
2023-03-17T05:58:43.103Z,0.00
2023-03-17T05:59:43.102Z,0.00
2023-03-17T06:00:43.069Z,0.00
2023-03-17T06:01:43.072Z,0.00
2023-03-17T06:02:43.109Z,0.00
2023-03-17T06:03:43.126Z,0.00
2023-03-17T06:04:43.015Z,0.00
2023-03-17T06:05:43.018Z,0.00
2023-03-17T06:06:42.994Z,0.00
2023-03-17T06:07:53.040Z,0.00
2023-03-17T06:08:43.961Z,0.00
2023-03-17T06:09:42.965Z,0.00
2023-03-17T06:10:42.940Z,0.00
2023-03-17T06:11:42.938Z,0.00
2023-03-17T06:12:42.931Z,0.00
2023-03-17T06:13:42.906Z,0.00
2023-03-17T06:14:42.911Z,5.62
2023-03-17T06:15:42.948Z,5.62
2023-03-17T06:16:42.889Z,5.62
2023-03-17T06:17:42.861Z,5.62
2023-03-17T06:18:42.859Z,5.62
2023-03-17T06:19:42.878Z,5.62
2023-03-17T06:20:42.812Z,5.62
2023-03-17T06:21:42.817Z,5.62
2023-03-17T06:23:00.508Z,5.62
2023-03-17T06:23:43.789Z,5.62
2023-03-17T06:24:42.769Z,5.62
2023-03-17T06:25:42.759Z,5.62
2023-03-17T06:26:42.740Z,5.62
2023-03-17T06:27:42.721Z,5.62
2023-03-17T06:28:42.885Z,5.62
2023-03-17T06:29:42.707Z,5.62
2023-03-17T06:30:42.677Z,5.62
2023-03-17T06:31:42.858Z,5.62
2023-03-17T06:32:42.690Z,5.62
2023-03-17T06:33:42.662Z,5.62
2023-03-17T06:34:42.635Z,5.62
2023-03-17T06:35:42.697Z,11.25
2023-03-17T06:36:42.784Z,11.25
2023-03-17T06:37:42.597Z,11.25
2023-03-17T06:38:42.575Z,11.25
2023-03-17T06:39:42.575Z,11.25
2023-03-17T06:40:42.563Z,11.25
2023-03-17T06:41:42.865Z,11.25
2023-03-17T06:42:42.527Z,11.25
2023-03-17T06:43:42.513Z,11.25
2023-03-17T06:44:42.510Z,11.25
2023-03-17T06:45:42.491Z,11.25
2023-03-17T06:46:42.554Z,11.25
2023-03-17T06:47:42.464Z,16.88
2023-03-17T06:48:42.458Z,16.88
2023-03-17T06:49:42.443Z,16.88
2023-03-17T06:50:42.423Z,16.88
2023-03-17T06:51:42.583Z,16.88
2023-03-17T06:52:42.411Z,16.88
2023-03-17T06:53:42.562Z,16.88
2023-03-17T06:54:42.381Z,16.88
2023-03-17T06:55:42.372Z,16.88
2023-03-17T06:56:42.358Z,16.88
2023-03-17T06:57:42.370Z,16.88
2023-03-17T06:58:42.521Z,16.88
2023-03-17T06:59:42.306Z,16.88
2023-03-17T07:00:42.302Z,16.88
2023-03-17T07:01:42.357Z,16.88
2023-03-17T07:02:42.332Z,16.88
2023-03-17T07:03:42.253Z,16.88
2023-03-17T07:04:42.474Z,16.88
2023-03-17T07:05:42.238Z,22.50
2023-03-17T07:06:42.221Z,22.50
2023-03-17T07:07:42.199Z,22.50
2023-03-17T07:08:42.203Z,22.50
2023-03-17T07:09:42.372Z,22.50
2023-03-17T07:10:42.186Z,22.50
2023-03-17T07:11:42.330Z,22.50
2023-03-17T07:12:42.159Z,28.12
2023-03-17T07:13:42.156Z,28.12
2023-03-17T07:14:42.305Z,28.12
2023-03-17T07:15:42.107Z,28.12
2023-03-17T07:16:42.320Z,28.12
2023-03-17T07:17:42.088Z,28.12
2023-03-17T07:18:42.064Z,28.12
2023-03-17T07:19:42.234Z,28.12
2023-03-17T07:20:42.046Z,33.75
2023-03-17T07:21:42.207Z,33.75
2023-03-17T07:22:42.008Z,33.75
2023-03-17T07:23:41.996Z,33.75
2023-03-17T07:24:42.166Z,33.75
2023-03-17T07:25:41.980Z,33.75
2023-03-17T07:26:41.967Z,39.38
2023-03-17T07:27:41.967Z,39.38
2023-03-17T07:28:41.955Z,39.38
2023-03-17T07:29:42.113Z,39.38
2023-03-17T07:30:41.935Z,39.38
2023-03-17T07:31:41.922Z,39.38
2023-03-17T07:32:41.963Z,39.38
2023-03-17T07:33:41.881Z,39.38
2023-03-17T07:34:42.044Z,39.38
2023-03-17T07:35:42.048Z,39.38
2023-03-17T07:36:41.830Z,39.38
2023-03-17T07:37:41.822Z,39.38
2023-03-17T07:38:41.804Z,39.38
2023-03-17T07:39:41.793Z,39.38
2023-03-17T07:40:42.110Z,45.00
2023-03-17T07:41:41.775Z,45.00
2023-03-17T07:42:42.598Z,45.00
2023-03-17T07:43:41.745Z,45.00
2023-03-17T07:44:41.731Z,45.00
2023-03-17T07:45:41.924Z,39.38
2023-03-17T07:46:41.702Z,45.00
2023-03-17T07:47:41.693Z,45.00
2023-03-17T07:48:41.706Z,45.00
2023-03-17T07:49:42.535Z,45.00
2023-03-17T07:50:41.861Z,45.00
2023-03-17T07:51:41.638Z,45.00
2023-03-17T07:52:41.643Z,50.62
2023-03-17T07:53:41.616Z,45.00
2023-03-17T07:54:43.125Z,50.62
2023-03-17T07:55:41.927Z,45.00
2023-03-17T07:56:41.573Z,45.00
2023-03-17T07:57:41.677Z,45.00
2023-03-17T07:58:41.572Z,39.38
2023-03-17T07:59:41.564Z,45.00
2023-03-17T08:00:41.702Z,39.38
2023-03-17T08:01:41.614Z,45.00
2023-03-17T08:02:41.725Z,45.00
2023-03-17T08:03:41.901Z,45.00
2023-03-17T08:04:41.477Z,45.00
2023-03-17T08:05:41.443Z,45.00
2023-03-17T08:06:41.443Z,45.00
2023-03-17T08:07:41.438Z,45.00
2023-03-17T08:08:41.429Z,45.00
2023-03-17T08:09:41.573Z,45.00
2023-03-17T08:10:41.402Z,45.00
2023-03-17T08:11:41.402Z,39.38
2023-03-17T08:12:41.363Z,45.00
2023-03-17T08:13:41.361Z,45.00
2023-03-17T08:14:41.529Z,45.00
2023-03-17T08:15:41.323Z,45.00
2023-03-17T08:16:41.394Z,39.38
2023-03-17T08:17:41.293Z,39.38
2023-03-17T08:18:41.338Z,39.38
2023-03-17T08:19:41.457Z,33.75
2023-03-17T08:20:41.299Z,39.38
2023-03-17T08:21:41.246Z,39.38
2023-03-17T08:22:41.272Z,39.38
2023-03-17T08:23:41.250Z,33.75
2023-03-17T08:24:41.224Z,33.75
2023-03-17T08:25:41.402Z,33.75
2023-03-17T08:26:41.182Z,39.38
2023-03-17T08:27:41.195Z,39.38
2023-03-17T08:28:41.172Z,39.38
2023-03-17T08:29:41.322Z,39.38
2023-03-17T08:30:41.584Z,45.00
2023-03-17T08:31:41.311Z,45.00
2023-03-17T08:32:41.173Z,45.00
2023-03-17T08:33:41.090Z,50.62
2023-03-17T08:34:41.071Z,56.25
2023-03-17T08:35:41.078Z,56.25
2023-03-17T08:36:41.324Z,56.25
2023-03-17T08:37:41.031Z,56.25
2023-03-17T08:38:41.031Z,61.88
2023-03-17T08:39:41.008Z,56.25
2023-03-17T08:40:41.030Z,56.25
2023-03-17T08:41:40.983Z,56.25
2023-03-17T08:42:41.155Z,45.00
2023-03-17T08:43:40.962Z,45.00
2023-03-17T08:44:42.892Z,56.25
2023-03-17T08:45:41.289Z,50.62
2023-03-17T08:46:40.925Z,50.62
2023-03-17T08:47:40.917Z,56.25
2023-03-17T08:48:40.903Z,45.00
2023-03-17T08:49:41.073Z,45.00
2023-03-17T08:50:40.882Z,56.25
2023-03-17T08:51:40.881Z,50.62
2023-03-17T08:52:40.890Z,50.62
2023-03-17T08:53:40.845Z,56.25
2023-03-17T08:54:41.000Z,56.25
2023-03-17T08:55:40.832Z,56.25
2023-03-17T08:56:40.799Z,50.62
2023-03-17T08:57:40.810Z,56.25
2023-03-17T08:58:40.779Z,67.50
2023-03-17T08:59:40.759Z,56.25
2023-03-17T09:00:40.937Z,50.62
2023-03-17T09:01:40.759Z,56.25
2023-03-17T09:02:40.763Z,50.62
2023-03-17T09:03:40.739Z,56.25
2023-03-17T09:04:40.714Z,56.25
2023-03-17T09:05:40.861Z,56.25
2023-03-17T09:06:48.939Z,56.25
2023-03-17T09:07:41.706Z,56.25
2023-03-17T09:08:40.837Z,56.25
2023-03-17T09:09:40.652Z,61.88
2023-03-17T09:10:42.555Z,73.12
2023-03-17T09:11:40.622Z,56.25
2023-03-17T09:12:40.605Z,56.25
2023-03-17T09:13:40.589Z,67.50
2023-03-17T09:14:44.299Z,67.50
2023-03-17T09:15:40.798Z,67.50
2023-03-17T09:16:40.560Z,73.12
2023-03-17T09:17:40.538Z,56.25
2023-03-17T09:18:40.528Z,56.25
2023-03-17T09:19:40.597Z,56.25
2023-03-17T09:20:40.682Z,50.62
2023-03-17T09:21:40.485Z,56.25
2023-03-17T09:22:40.476Z,78.75
2023-03-17T09:23:40.455Z,78.75
2023-03-17T09:24:40.453Z,73.12
2023-03-17T09:25:40.606Z,84.38
2023-03-17T09:26:40.435Z,90.00
2023-03-17T09:27:40.402Z,67.50
2023-03-17T09:28:40.403Z,84.38
2023-03-17T09:29:40.376Z,84.38
2023-03-17T09:30:40.551Z,84.38
2023-03-17T09:31:40.494Z,84.38
2023-03-17T09:32:40.389Z,84.38
2023-03-17T09:33:40.329Z,90.00
2023-03-17T09:34:40.343Z,78.75
2023-03-17T09:35:40.523Z,73.12
2023-03-17T09:36:40.291Z,90.00
2023-03-17T09:37:40.296Z,95.62
2023-03-17T09:38:40.263Z,95.62
2023-03-17T09:39:40.252Z,95.62
2023-03-17T09:40:40.232Z,101.25
2023-03-17T09:41:40.402Z,101.25
2023-03-17T09:42:40.221Z,101.25
2023-03-17T09:43:40.372Z,106.88
2023-03-17T09:44:40.191Z,106.88
2023-03-17T09:45:42.968Z,101.25
2023-03-17T09:46:40.228Z,101.25
2023-03-17T09:47:42.279Z,101.25
2023-03-17T09:48:40.149Z,101.25
2023-03-17T09:49:40.119Z,101.25
2023-03-17T09:50:40.105Z,101.25
2023-03-17T09:51:40.097Z,101.25
2023-03-17T09:52:40.258Z,101.25
2023-03-17T09:53:40.250Z,101.25
2023-03-17T09:54:40.232Z,106.88
2023-03-17T09:55:40.052Z,106.88
2023-03-17T09:56:40.053Z,106.88
2023-03-17T09:57:40.032Z,106.88
2023-03-17T09:58:40.019Z,106.88
2023-03-17T09:59:40.150Z,106.88
2023-03-17T10:00:39.979Z,106.88
2023-03-17T10:01:39.990Z,84.38
2023-03-17T10:02:40.009Z,112.50
2023-03-17T10:03:39.933Z,112.50
2023-03-17T10:04:40.099Z,112.50
2023-03-17T10:05:39.962Z,106.88
2023-03-17T10:06:39.889Z,106.88
2023-03-17T10:07:39.883Z,106.88
2023-03-17T10:08:39.859Z,106.88
2023-03-17T10:09:39.859Z,95.62
2023-03-17T10:10:40.018Z,106.88
2023-03-17T10:11:39.819Z,106.88
2023-03-17T10:12:39.808Z,95.62
2023-03-17T10:13:39.798Z,95.62
2023-03-17T10:14:39.787Z,101.25
2023-03-17T10:15:39.956Z,106.88
2023-03-17T10:16:39.950Z,95.62
2023-03-17T10:17:39.768Z,95.62
2023-03-17T10:18:39.738Z,101.25
2023-03-17T10:19:39.716Z,95.62
2023-03-17T10:20:39.917Z,90.00
2023-03-17T10:21:39.869Z,84.38
2023-03-17T10:22:39.692Z,95.62
2023-03-17T10:23:39.669Z,95.62
2023-03-17T10:24:39.657Z,95.62
2023-03-17T10:25:39.649Z,67.50
2023-03-17T10:26:39.826Z,78.75
2023-03-17T10:27:39.634Z,61.88
2023-03-17T10:28:39.602Z,61.88
2023-03-17T10:29:39.587Z,50.62
2023-03-17T10:30:39.909Z,45.00
2023-03-17T10:31:39.629Z,45.00
2023-03-17T10:32:39.615Z,50.62
2023-03-17T10:33:39.535Z,56.25
2023-03-17T10:34:39.530Z,56.25
2023-03-17T10:35:39.827Z,56.25
2023-03-17T10:36:39.676Z,61.88
2023-03-17T10:37:39.776Z,73.12
2023-03-17T10:38:39.477Z,90.00
2023-03-17T10:39:39.464Z,112.50
2023-03-17T10:40:39.454Z,112.50
2023-03-17T10:41:39.757Z,118.12
2023-03-17T10:42:39.426Z,106.88
2023-03-17T10:43:39.404Z,101.25
2023-03-17T10:44:39.418Z,78.75
2023-03-17T10:45:42.233Z,61.88
2023-03-17T10:46:39.610Z,67.50
2023-03-17T10:47:39.553Z,67.50
2023-03-17T10:48:39.355Z,78.75
2023-03-17T10:49:39.335Z,90.00
2023-03-17T10:50:39.332Z,84.38
2023-03-17T10:51:39.473Z,101.25
2023-03-17T10:52:39.485Z,90.00
2023-03-17T10:53:39.294Z,84.38
2023-03-17T10:54:39.276Z,61.88
2023-03-17T10:55:39.273Z,61.88
2023-03-17T10:56:39.258Z,61.88
2023-03-17T10:57:39.230Z,50.62
2023-03-17T10:58:39.493Z,50.62
2023-03-17T10:59:41.086Z,50.62
2023-03-17T11:00:39.276Z,56.25
2023-03-17T11:01:39.171Z,50.62
2023-03-17T11:02:39.172Z,56.25
2023-03-17T11:03:39.221Z,56.25
2023-03-17T11:04:39.344Z,73.12
2023-03-17T11:05:40.136Z,78.75
2023-03-17T11:06:39.213Z,78.75
2023-03-17T11:07:39.181Z,90.00
2023-03-17T11:08:39.177Z,90.00
2023-03-17T11:09:39.266Z,95.62
2023-03-17T11:10:39.075Z,78.75
2023-03-17T11:11:39.055Z,78.75
2023-03-17T11:12:39.044Z,61.88
2023-03-17T11:13:39.024Z,67.50
2023-03-17T11:14:39.200Z,90.00
2023-03-17T11:15:39.000Z,90.00
2023-03-17T11:16:39.030Z,84.38
2023-03-17T11:17:38.976Z,73.12
2023-03-17T11:18:38.970Z,73.12
2023-03-17T11:19:39.129Z,95.62
2023-03-17T11:20:38.958Z,78.75
2023-03-17T11:21:38.918Z,90.00
2023-03-17T11:22:38.916Z,101.25
2023-03-17T11:23:38.908Z,95.62
2023-03-17T11:24:39.056Z,84.38
2023-03-17T11:25:38.864Z,73.12
2023-03-17T11:26:39.050Z,90.00
2023-03-17T11:27:38.851Z,84.38
2023-03-17T11:28:38.860Z,95.62
2023-03-17T11:29:38.818Z,78.75
2023-03-17T11:30:38.828Z,84.38
2023-03-17T11:31:39.128Z,106.88
2023-03-17T11:32:39.201Z,112.50
2023-03-17T11:33:38.764Z,84.38
2023-03-17T11:34:38.765Z,73.12
2023-03-17T11:35:38.793Z,90.00
2023-03-17T11:36:38.746Z,78.75
2023-03-17T11:37:38.887Z,84.38
2023-03-17T11:38:38.704Z,95.62
2023-03-17T11:39:38.684Z,95.62
2023-03-17T11:40:38.701Z,95.62
2023-03-17T11:41:38.663Z,112.50
2023-03-17T11:42:38.854Z,101.25
2023-03-17T11:43:38.634Z,106.88
2023-03-17T11:44:38.637Z,90.00
2023-03-17T11:45:38.635Z,95.62
2023-03-17T11:46:38.607Z,90.00
2023-03-17T11:47:38.764Z,95.62
2023-03-17T11:48:38.584Z,84.38
2023-03-17T11:49:38.575Z,90.00
2023-03-17T11:50:38.562Z,78.75
2023-03-17T11:51:38.535Z,67.50
2023-03-17T11:52:38.703Z,78.75
2023-03-17T11:53:38.702Z,73.12
2023-03-17T11:54:38.570Z,73.12
2023-03-17T11:55:38.488Z,73.12
2023-03-17T11:56:38.472Z,78.75
2023-03-17T11:57:38.462Z,106.88
2023-03-17T11:58:38.805Z,101.25
2023-03-17T11:59:38.421Z,90.00
2023-03-17T12:00:38.422Z,67.50
2023-03-17T12:01:38.398Z,78.75
2023-03-17T12:02:38.408Z,78.75
2023-03-17T12:03:38.499Z,73.12
2023-03-17T12:04:38.629Z,78.75
2023-03-17T12:05:38.354Z,73.12
2023-03-17T12:06:38.339Z,67.50
2023-03-17T12:07:38.331Z,73.12
2023-03-17T12:08:38.317Z,61.88
2023-03-17T12:09:38.304Z,73.12
2023-03-17T12:10:38.287Z,67.50
2023-03-17T12:11:38.267Z,67.50
2023-03-17T12:12:38.266Z,61.88
2023-03-17T12:13:38.424Z,61.88
2023-03-17T12:14:38.251Z,61.88
2023-03-17T12:15:38.456Z,61.88
2023-03-17T12:16:38.227Z,73.12
2023-03-17T12:17:38.201Z,78.75
2023-03-17T12:18:38.185Z,67.50
2023-03-17T12:19:38.163Z,67.50
2023-03-17T12:20:38.343Z,61.88
2023-03-17T12:21:38.148Z,61.88
2023-03-17T12:22:38.134Z,61.88
2023-03-17T12:23:38.124Z,61.88
2023-03-17T12:24:38.105Z,61.88
2023-03-17T12:25:38.255Z,61.88
2023-03-17T12:26:38.077Z,61.88
2023-03-17T12:27:38.097Z,61.88
2023-03-17T12:28:38.060Z,61.88
2023-03-17T12:29:38.042Z,61.88
2023-03-17T12:30:38.202Z,61.88
2023-03-17T12:31:38.011Z,61.88
2023-03-17T12:32:38.048Z,61.88
2023-03-17T12:33:38.001Z,61.88
2023-03-17T12:34:37.979Z,61.88
2023-03-17T12:35:38.166Z,61.88
2023-03-17T12:36:37.951Z,61.88
2023-03-17T12:37:37.943Z,56.25
2023-03-17T12:38:37.937Z,56.25
2023-03-17T12:39:37.911Z,56.25
2023-03-17T12:40:37.893Z,56.25
2023-03-17T12:41:38.066Z,56.25
2023-03-17T12:42:37.860Z,56.25
2023-03-17T12:43:37.864Z,56.25
2023-03-17T12:44:37.842Z,56.25
2023-03-17T12:45:37.832Z,56.25
2023-03-17T12:46:38.071Z,50.62
2023-03-17T12:47:37.824Z,56.25
2023-03-17T12:48:37.790Z,56.25
2023-03-17T12:49:37.802Z,56.25
2023-03-17T12:50:37.774Z,61.88
2023-03-17T12:51:38.628Z,61.88
2023-03-17T12:52:37.911Z,61.88
2023-03-17T12:53:37.726Z,61.88
2023-03-17T12:54:37.720Z,61.88
2023-03-17T12:55:37.701Z,61.88
2023-03-17T12:56:37.689Z,61.88
2023-03-17T12:57:37.862Z,61.88
2023-03-17T12:58:37.668Z,61.88
2023-03-17T12:59:37.653Z,61.88
2023-03-17T13:00:37.630Z,61.88
2023-03-17T13:01:37.663Z,61.88
2023-03-17T13:02:37.613Z,61.88
2023-03-17T13:03:37.654Z,61.88